sensor_id;sensor_type;location;lat;lon;timestamp;temperature;humidity
23723;DHT22;12042;52.136;5.584;2022-11-04T06:45:58;9.00;99.90
23723;DHT22;12042;52.136;5.584;2022-11-04T06:48:25;9.00;99.90
23723;DHT22;12042;52.136;5.584;2022-11-04T06:50:51;9.10;99.90
23723;DHT22;12042;52.136;5.584;2022-11-04T06:53:17;9.10;99.90
23723;DHT22;12042;52.136;5.584;2022-11-04T06:55:43;9.30;99.90
23723;DHT22;12042;52.136;5.584;2022-11-04T06:58:09;9.30;99.90
23723;DHT22;12042;52.136;5.584;2022-11-04T07:00:35;9.30;99.90
23723;DHT22;12042;52.136;5.584;2022-11-04T07:03:01;9.40;99.90
23723;DHT22;12042;52.136;5.584;2022-11-04T07:05:26;9.50;99.90
23723;DHT22;12042;52.136;5.584;2022-11-04T07:07:52;9.60;99.90
23723;DHT22;12042;52.136;5.584;2022-11-04T07:10:17;9.60;99.90
23723;DHT22;12042;52.136;5.584;2022-11-04T07:12:43;9.60;99.90
23723;DHT22;12042;52.136;5.584;2022-11-04T07:15:09;9.50;99.90
23723;DHT22;12042;52.136;5.584;2022-11-04T07:17:35;9.50;99.90
23723;DHT22;12042;52.136;5.584;2022-11-04T07:20:01;9.50;99.90
23723;DHT22;12042;52.136;5.584;2022-11-04T07:22:27;9.50;99.90
23723;DHT22;12042;52.136;5.584;2022-11-04T07:24:52;9.50;99.90
23723;DHT22;12042;52.136;5.584;2022-11-04T07:27:18;9.50;99.90
23723;DHT22;12042;52.136;5.584;2022-11-04T07:29:44;9.50;99.90
23723;DHT22;12042;52.136;5.584;2022-11-04T07:32:10;9.50;99.90
23723;DHT22;12042;52.136;5.584;2022-11-04T07:34:35;9.50;99.90
23723;DHT22;12042;52.136;5.584;2022-11-04T07:37:01;9.70;99.90
23723;DHT22;12042;52.136;5.584;2022-11-04T07:39:27;9.60;99.90
23723;DHT22;12042;52.136;5.584;2022-11-04T07:41:53;9.80;99.90
23723;DHT22;12042;52.136;5.584;2022-11-04T07:44:18;9.90;99.90
23723;DHT22;12042;52.136;5.584;2022-11-04T07:46:46;9.90;99.90
23723;DHT22;12042;52.136;5.584;2022-11-04T07:49:12;9.90;99.90
23723;DHT22;12042;52.136;5.584;2022-11-04T07:51:38;9.90;99.90
23723;DHT22;12042;52.136;5.584;2022-11-04T07:54:06;10.00;99.90
23723;DHT22;12042;52.136;5.584;2022-11-04T07:56:32;10.00;99.90
23723;DHT22;12042;52.136;5.584;2022-11-04T07:58:57;9.90;99.90
23723;DHT22;12042;52.136;5.584;2022-11-04T08:01:23;9.80;99.90
23723;DHT22;12042;52.136;5.584;2022-11-04T08:03:50;9.80;99.90
23723;DHT22;12042;52.136;5.584;2022-11-04T08:06:17;9.80;99.90
23723;DHT22;12042;52.136;5.584;2022-11-04T08:08:43;9.80;99.90
23723;DHT22;12042;52.136;5.584;2022-11-04T08:11:14;9.70;99.90
23723;DHT22;12042;52.136;5.584;2022-11-04T08:13:40;9.70;99.90
23723;DHT22;12042;52.136;5.584;2022-11-04T08:16:11;9.70;99.90
23723;DHT22;12042;52.136;5.584;2022-11-04T08:18:38;9.70;99.90
23723;DHT22;12042;52.136;5.584;2022-11-04T08:21:04;9.80;99.90
23723;DHT22;12042;52.136;5.584;2022-11-04T08:23:31;9.80;99.90
23723;DHT22;12042;52.136;5.584;2022-11-04T08:25:57;9.90;99.90
23723;DHT22;12042;52.136;5.584;2022-11-04T08:28:23;9.90;99.90
23723;DHT22;12042;52.136;5.584;2022-11-04T08:30:52;9.90;99.90
23723;DHT22;12042;52.136;5.584;2022-11-04T08:33:18;10.00;99.90
23723;DHT22;12042;52.136;5.584;2022-11-04T08:35:44;10.00;99.90
23723;DHT22;12042;52.136;5.584;2022-11-04T08:38:09;10.00;99.90
23723;DHT22;12042;52.136;5.584;2022-11-04T08:40:36;10.00;99.90
23723;DHT22;12042;52.136;5.584;2022-11-04T08:43:01;10.00;99.90
23723;DHT22;12042;52.136;5.584;2022-11-04T08:45:27;10.10;99.90
23723;DHT22;12042;52.136;5.584;2022-11-04T08:47:53;10.10;99.90
23723;DHT22;12042;52.136;5.584;2022-11-04T08:50:19;10.10;99.90
23723;DHT22;12042;52.136;5.584;2022-11-04T08:52:44;10.10;99.90
23723;DHT22;12042;52.136;5.584;2022-11-04T08:55:10;10.10;99.90
23723;DHT22;12042;52.136;5.584;2022-11-04T08:57:35;10.10;99.90
23723;DHT22;12042;52.136;5.584;2022-11-04T09:00:02;10.10;99.90
23723;DHT22;12042;52.136;5.584;2022-11-04T09:02:28;10.20;99.90
23723;DHT22;12042;52.136;5.584;2022-11-04T09:04:54;10.20;99.90
23723;DHT22;12042;52.136;5.584;2022-11-04T09:07:19;10.20;99.90
23723;DHT22;12042;52.136;5.584;2022-11-04T09:09:45;10.10;99.90
23723;DHT22;12042;52.136;5.584;2022-11-04T09:12:11;10.20;99.90
23723;DHT22;12042;52.136;5.584;2022-11-04T09:14:37;10.20;99.90
23723;DHT22;12042;52.136;5.584;2022-11-04T09:17:02;10.20;99.90
23723;DHT22;12042;52.136;5.584;2022-11-04T09:19:28;10.20;99.90
23723;DHT22;12042;52.136;5.584;2022-11-04T09:21:53;10.10;99.90
23723;DHT22;12042;52.136;5.584;2022-11-04T09:24:19;10.20;99.90
23723;DHT22;12042;52.136;5.584;2022-11-04T09:26:44;10.30;99.90
23723;DHT22;12042;52.136;5.584;2022-11-04T09:29:10;10.30;99.90
23723;DHT22;12042;52.136;5.584;2022-11-04T09:31:36;10.40;99.90
23723;DHT22;12042;52.136;5.584;2022-11-04T09:34:01;10.40;99.90
23723;DHT22;12042;52.136;5.584;2022-11-04T09:36:27;10.40;99.90
23723;DHT22;12042;52.136;5.584;2022-11-04T09:38:55;10.50;99.90
23723;DHT22;12042;52.136;5.584;2022-11-04T09:47:00;10.70;99.90
23723;DHT22;12042;52.136;5.584;2022-11-04T09:49:31;10.80;99.90
23723;DHT22;12042;52.136;5.584;2022-11-04T09:52:00;10.90;99.90
23723;DHT22;12042;52.136;5.584;2022-11-04T09:54:38;11.00;99.90
23723;DHT22;12042;52.136;5.584;2022-11-04T09:57:12;11.10;99.90
23723;DHT22;12042;52.136;5.584;2022-11-04T09:59:40;11.20;99.90
23723;DHT22;12042;52.136;5.584;2022-11-04T10:04:59;11.50;99.90
23723;DHT22;12042;52.136;5.584;2022-11-04T10:10:49;11.60;99.90
23723;DHT22;12042;52.136;5.584;2022-11-04T10:16:02;11.60;99.90
23723;DHT22;12042;52.136;5.584;2022-11-04T10:18:44;11.60;99.90
23723;DHT22;12042;52.136;5.584;2022-11-04T10:21:17;11.60;99.90
23723;DHT22;12042;52.136;5.584;2022-11-04T10:29:00;11.60;99.90
23723;DHT22;12042;52.136;5.584;2022-11-04T10:31:27;11.60;99.90
23723;DHT22;12042;52.136;5.584;2022-11-04T10:34:01;11.60;99.90
23723;DHT22;12042;52.136;5.584;2022-11-04T10:36:28;11.50;99.90
23723;DHT22;12042;52.136;5.584;2022-11-04T10:38:55;11.50;99.90
23723;DHT22;12042;52.136;5.584;2022-11-04T10:41:33;11.50;99.90
23723;DHT22;12042;52.136;5.584;2022-11-04T10:52:07;11.80;99.90
23723;DHT22;12042;52.136;5.584;2022-11-04T10:54:44;11.70;99.90
23723;DHT22;12042;52.136;5.584;2022-11-04T10:57:11;11.70;99.90
23723;DHT22;12042;52.136;5.584;2022-11-04T10:59:46;11.70;99.90
23723;DHT22;12042;52.136;5.584;2022-11-04T11:02:13;11.80;99.90
23723;DHT22;12042;52.136;5.584;2022-11-04T11:04:39;11.90;99.90
23723;DHT22;12042;52.136;5.584;2022-11-04T11:07:08;11.80;99.90
23723;DHT22;12042;52.136;5.584;2022-11-04T11:09:36;11.90;99.90
23723;DHT22;12042;52.136;5.584;2022-11-04T11:12:22;12.00;99.90
23723;DHT22;12042;52.136;5.584;2022-11-04T11:14:57;12.00;99.90
23723;DHT22;12042;52.136;5.584;2022-11-04T11:20:00;12.10;99.90
23723;DHT22;12042;52.136;5.584;2022-11-04T11:22:46;12.10;99.90
23723;DHT22;12042;52.136;5.584;2022-11-04T11:25:24;12.10;99.90
23723;DHT22;12042;52.136;5.584;2022-11-04T11:31:12;12.10;99.90
23723;DHT22;12042;52.136;5.584;2022-11-04T11:33:29;12.10;99.90
23723;DHT22;12042;52.136;5.584;2022-11-04T11:36:08;12.20;99.90
23723;DHT22;12042;52.136;5.584;2022-11-04T11:38:38;12.30;99.90
23723;DHT22;12042;52.136;5.584;2022-11-04T11:41:15;12.40;99.90
23723;DHT22;12042;52.136;5.584;2022-11-04T11:43:49;12.50;99.90
23723;DHT22;12042;52.136;5.584;2022-11-04T11:46:23;12.60;99.90
23723;DHT22;12042;52.136;5.584;2022-11-04T11:48:54;12.60;99.90
23723;DHT22;12042;52.136;5.584;2022-11-04T11:51:37;12.70;99.90
23723;DHT22;12042;52.136;5.584;2022-11-04T11:56:55;13.00;99.90
23723;DHT22;12042;52.136;5.584;2022-11-04T11:59:27;13.10;99.90
23723;DHT22;12042;52.136;5.584;2022-11-04T12:04:53;13.20;99.90
23723;DHT22;12042;52.136;5.584;2022-11-04T12:10:44;13.20;99.90
23723;DHT22;12042;52.136;5.584;2022-11-04T12:13:26;13.20;99.90
23723;DHT22;12042;52.136;5.584;2022-11-04T12:16:14;13.30;99.90
23723;DHT22;12042;52.136;5.584;2022-11-04T12:19:08;13.30;99.90
23723;DHT22;12042;52.136;5.584;2022-11-04T12:21:44;13.30;99.90
23723;DHT22;12042;52.136;5.584;2022-11-04T12:26:52;13.30;99.90
23723;DHT22;12042;52.136;5.584;2022-11-04T12:32:17;13.30;99.90
23723;DHT22;12042;52.136;5.584;2022-11-04T12:35:06;13.30;99.90
23723;DHT22;12042;52.136;5.584;2022-11-04T12:43:31;13.30;99.90
23723;DHT22;12042;52.136;5.584;2022-11-04T12:46:27;13.30;99.90
23723;DHT22;12042;52.136;5.584;2022-11-04T12:49:18;13.30;99.90
23723;DHT22;12042;52.136;5.584;2022-11-04T12:55:05;13.30;99.90
23723;DHT22;12042;52.136;5.584;2022-11-04T12:57:53;13.20;99.90
23723;DHT22;12042;52.136;5.584;2022-11-04T13:00:23;13.20;99.90
23723;DHT22;12042;52.136;5.584;2022-11-04T13:02:59;13.20;99.90
23723;DHT22;12042;52.136;5.584;2022-11-04T13:05:43;13.30;99.90
23723;DHT22;12042;52.136;5.584;2022-11-04T13:14:13;13.40;99.90
23723;DHT22;12042;52.136;5.584;2022-11-04T13:16:45;13.40;99.90
23723;DHT22;12042;52.136;5.584;2022-11-04T13:19:39;13.40;99.90
23723;DHT22;12042;52.136;5.584;2022-11-04T13:22:21;13.40;99.90
23723;DHT22;12042;52.136;5.584;2022-11-04T13:24:57;13.50;99.90
23723;DHT22;12042;52.136;5.584;2022-11-04T13:27:31;13.50;99.90
23723;DHT22;12042;52.136;5.584;2022-11-04T13:30:15;13.50;99.90
23723;DHT22;12042;52.136;5.584;2022-11-04T13:33:26;13.50;99.90
23723;DHT22;12042;52.136;5.584;2022-11-04T13:38:43;13.50;99.90
23723;DHT22;12042;52.136;5.584;2022-11-04T13:44:11;13.50;99.90
23723;DHT22;12042;52.136;5.584;2022-11-04T13:46:38;13.50;99.90
23723;DHT22;12042;52.136;5.584;2022-11-04T13:49:11;13.50;99.90
23723;DHT22;12042;52.136;5.584;2022-11-04T13:51:45;13.50;99.90
23723;DHT22;12042;52.136;5.584;2022-11-04T13:54:39;13.30;99.90
23723;DHT22;12042;52.136;5.584;2022-11-04T13:57:16;12.80;99.90
23723;DHT22;12042;52.136;5.584;2022-11-04T14:00:07;12.40;99.90
23723;DHT22;12042;52.136;5.584;2022-11-04T14:03:37;11.90;99.90
23723;DHT22;12042;52.136;5.584;2022-11-04T14:08:25;11.50;99.90
23723;DHT22;12042;52.136;5.584;2022-11-04T14:18:32;11.50;99.90
23723;DHT22;12042;52.136;5.584;2022-11-04T14:21:08;11.50;99.90
23723;DHT22;12042;52.136;5.584;2022-11-04T14:23:39;11.50;99.90
23723;DHT22;12042;52.136;5.584;2022-11-04T14:26:08;11.60;99.90
23723;DHT22;12042;52.136;5.584;2022-11-04T14:28:34;11.70;99.90
23723;DHT22;12042;52.136;5.584;2022-11-04T14:31:06;11.80;99.90
23723;DHT22;12042;52.136;5.584;2022-11-04T14:46:59;11.80;99.90
23723;DHT22;12042;52.136;5.584;2022-11-04T14:49:47;11.80;99.90
23723;DHT22;12042;52.136;5.584;2022-11-04T14:52:33;11.90;99.90
23723;DHT22;12042;52.136;5.584;2022-11-04T14:57:41;11.90;99.90
23723;DHT22;12042;52.136;5.584;2022-11-04T15:05:57;11.90;99.90
23723;DHT22;12042;52.136;5.584;2022-11-04T15:08:43;11.80;99.90
23723;DHT22;12042;52.136;5.584;2022-11-04T15:13:46;11.80;99.90
23723;DHT22;12042;52.136;5.584;2022-11-04T15:16:21;11.80;99.90
23723;DHT22;12042;52.136;5.584;2022-11-04T15:18:49;11.70;99.90
23723;DHT22;12042;52.136;5.584;2022-11-04T15:21:16;11.70;99.90
23723;DHT22;12042;52.136;5.584;2022-11-04T15:23:46;11.70;99.90
23723;DHT22;12042;52.136;5.584;2022-11-04T15:28:48;11.70;99.90
23723;DHT22;12042;52.136;5.584;2022-11-04T15:31:17;11.70;99.90
23723;DHT22;12042;52.136;5.584;2022-11-04T15:33:47;11.70;99.90
23723;DHT22;12042;52.136;5.584;2022-11-04T15:38:48;11.60;99.90
23723;DHT22;12042;52.136;5.584;2022-11-04T15:41:17;11.60;99.90
23723;DHT22;12042;52.136;5.584;2022-11-04T15:44:02;11.60;99.90
23723;DHT22;12042;52.136;5.584;2022-11-04T15:46:27;11.50;99.90
23723;DHT22;12042;52.136;5.584;2022-11-04T15:49:06;11.40;99.90
23723;DHT22;12042;52.136;5.584;2022-11-04T15:51:38;11.30;99.90
23723;DHT22;12042;52.136;5.584;2022-11-04T15:54:30;11.20;99.90
23723;DHT22;12042;52.136;5.584;2022-11-04T15:57:00;11.20;99.90
23723;DHT22;12042;52.136;5.584;2022-11-04T15:59:34;11.30;99.90
23723;DHT22;12042;52.136;5.584;2022-11-04T16:02:06;11.30;99.90
23723;DHT22;12042;52.136;5.584;2022-11-04T16:04:41;11.30;99.90
23723;DHT22;12042;52.136;5.584;2022-11-04T16:09:50;11.30;99.90
23723;DHT22;12042;52.136;5.584;2022-11-04T16:12:25;11.30;99.90
23723;DHT22;12042;52.136;5.584;2022-11-04T16:14:53;11.30;99.90
23723;DHT22;12042;52.136;5.584;2022-11-04T16:17:19;11.30;99.90
23723;DHT22;12042;52.136;5.584;2022-11-04T16:19:48;11.20;99.90
23723;DHT22;12042;52.136;5.584;2022-11-04T16:22:30;11.20;99.90
23723;DHT22;12042;52.136;5.584;2022-11-04T16:24:56;11.20;99.90
23723;DHT22;12042;52.136;5.584;2022-11-04T16:27:23;11.20;99.90
23723;DHT22;12042;52.136;5.584;2022-11-04T16:32:30;11.10;99.90
23723;DHT22;12042;52.136;5.584;2022-11-04T16:35:13;11.00;99.90
23723;DHT22;12042;52.136;5.584;2022-11-04T16:37:39;10.90;99.90
23723;DHT22;12042;52.136;5.584;2022-11-04T16:40:05;10.90;99.90
23723;DHT22;12042;52.136;5.584;2022-11-04T16:42:32;10.90;99.90
23723;DHT22;12042;52.136;5.584;2022-11-04T16:45:00;10.90;99.90
23723;DHT22;12042;52.136;5.584;2022-11-04T16:47:27;10.90;99.90
23723;DHT22;12042;52.136;5.584;2022-11-04T16:49:59;10.90;99.90
23723;DHT22;12042;52.136;5.584;2022-11-04T16:52:28;10.90;99.90
23723;DHT22;12042;52.136;5.584;2022-11-04T16:54:54;10.80;99.90
23723;DHT22;12042;52.136;5.584;2022-11-04T16:57:21;10.80;99.90
23723;DHT22;12042;52.136;5.584;2022-11-04T16:59:48;10.70;99.90
23723;DHT22;12042;52.136;5.584;2022-11-04T17:02:34;10.70;99.90
23723;DHT22;12042;52.136;5.584;2022-11-04T17:05:06;10.70;99.90
23723;DHT22;12042;52.136;5.584;2022-11-04T17:07:33;10.80;99.90
23723;DHT22;12042;52.136;5.584;2022-11-04T17:10:03;10.80;99.90
23723;DHT22;12042;52.136;5.584;2022-11-04T17:12:29;10.80;99.90
23723;DHT22;12042;52.136;5.584;2022-11-04T17:14:55;10.70;99.90
23723;DHT22;12042;52.136;5.584;2022-11-04T17:17:20;10.70;99.90
23723;DHT22;12042;52.136;5.584;2022-11-04T17:19:46;10.70;99.90
23723;DHT22;12042;52.136;5.584;2022-11-04T17:22:11;10.70;99.90
23723;DHT22;12042;52.136;5.584;2022-11-04T17:24:37;10.70;99.90
23723;DHT22;12042;52.136;5.584;2022-11-04T17:27:03;10.70;99.90
23723;DHT22;12042;52.136;5.584;2022-11-04T17:29:28;10.70;99.90
23723;DHT22;12042;52.136;5.584;2022-11-04T17:31:56;10.70;99.90
23723;DHT22;12042;52.136;5.584;2022-11-04T17:34:21;10.70;99.90
23723;DHT22;12042;52.136;5.584;2022-11-04T17:36:51;10.70;99.90
23723;DHT22;12042;52.136;5.584;2022-11-04T17:39:16;10.60;99.90
23723;DHT22;12042;52.136;5.584;2022-11-04T17:41:42;10.60;99.90
23723;DHT22;12042;52.136;5.584;2022-11-04T17:44:31;10.60;99.90
23723;DHT22;12042;52.136;5.584;2022-11-04T17:46:57;10.50;99.90
23723;DHT22;12042;52.136;5.584;2022-11-04T17:49:26;10.50;99.90
23723;DHT22;12042;52.136;5.584;2022-11-04T17:51:55;10.50;99.90
23723;DHT22;12042;52.136;5.584;2022-11-04T17:54:21;10.50;99.90
23723;DHT22;12042;52.136;5.584;2022-11-04T17:56:47;10.50;99.90
23723;DHT22;12042;52.136;5.584;2022-11-04T17:59:14;10.50;99.90
23723;DHT22;12042;52.136;5.584;2022-11-04T18:01:41;10.40;99.90
23723;DHT22;12042;52.136;5.584;2022-11-04T18:04:08;10.40;99.90
23723;DHT22;12042;52.136;5.584;2022-11-04T18:06:36;10.40;99.90
23723;DHT22;12042;52.136;5.584;2022-11-04T18:09:02;10.40;99.90
23723;DHT22;12042;52.136;5.584;2022-11-04T18:11:29;10.30;99.90
23723;DHT22;12042;52.136;5.584;2022-11-04T18:14:14;10.30;99.90
23723;DHT22;12042;52.136;5.584;2022-11-04T18:16:41;10.30;99.90
23723;DHT22;12042;52.136;5.584;2022-11-04T18:19:07;10.30;99.90
23723;DHT22;12042;52.136;5.584;2022-11-04T18:21:33;10.30;99.90
23723;DHT22;12042;52.136;5.584;2022-11-04T18:23:59;10.30;99.90
23723;DHT22;12042;52.136;5.584;2022-11-04T18:26:25;10.30;99.90
23723;DHT22;12042;52.136;5.584;2022-11-04T18:28:52;10.30;99.90
23723;DHT22;12042;52.136;5.584;2022-11-04T18:31:26;10.20;99.90
23723;DHT22;12042;52.136;5.584;2022-11-04T18:33:52;10.20;99.90
23723;DHT22;12042;52.136;5.584;2022-11-04T18:36:18;10.20;99.90
23723;DHT22;12042;52.136;5.584;2022-11-04T18:38:45;10.20;99.90
23723;DHT22;12042;52.136;5.584;2022-11-04T18:41:10;10.10;99.90
23723;DHT22;12042;52.136;5.584;2022-11-04T18:43:36;10.10;99.90
23723;DHT22;12042;52.136;5.584;2022-11-04T18:46:10;10.00;99.90
23723;DHT22;12042;52.136;5.584;2022-11-04T18:48:36;9.90;99.90
23723;DHT22;12042;52.136;5.584;2022-11-04T18:51:04;9.80;99.90
23723;DHT22;12042;52.136;5.584;2022-11-04T18:53:30;9.80;99.90
23723;DHT22;12042;52.136;5.584;2022-11-04T18:56:03;9.90;99.90
23723;DHT22;12042;52.136;5.584;2022-11-04T18:58:33;9.90;99.90
23723;DHT22;12042;52.136;5.584;2022-11-04T19:01:05;9.90;99.90
23723;DHT22;12042;52.136;5.584;2022-11-04T19:03:32;9.80;99.90
23723;DHT22;12042;52.136;5.584;2022-11-04T19:05:58;9.80;99.90
23723;DHT22;12042;52.136;5.584;2022-11-04T19:08:24;9.80;99.90
23723;DHT22;12042;52.136;5.584;2022-11-04T19:10:50;9.80;99.90
23723;DHT22;12042;52.136;5.584;2022-11-04T19:13:15;9.80;99.90
23723;DHT22;12042;52.136;5.584;2022-11-04T19:15:46;9.70;99.90
23723;DHT22;12042;52.136;5.584;2022-11-04T19:18:13;9.70;99.90
23723;DHT22;12042;52.136;5.584;2022-11-04T19:20:39;9.60;99.90
23723;DHT22;12042;52.136;5.584;2022-11-04T19:23:04;9.60;99.90
23723;DHT22;12042;52.136;5.584;2022-11-04T19:25:30;9.60;99.90
23723;DHT22;12042;52.136;5.584;2022-11-04T19:27:56;9.60;99.90
23723;DHT22;12042;52.136;5.584;2022-11-04T19:30:21;9.60;99.90
23723;DHT22;12042;52.136;5.584;2022-11-04T19:32:47;9.50;99.90
23723;DHT22;12042;52.136;5.584;2022-11-04T19:35:13;9.50;99.90
23723;DHT22;12042;52.136;5.584;2022-11-04T19:37:38;9.50;99.90
23723;DHT22;12042;52.136;5.584;2022-11-04T19:40:04;9.50;99.90
23723;DHT22;12042;52.136;5.584;2022-11-04T19:42:33;9.50;99.90
23723;DHT22;12042;52.136;5.584;2022-11-04T19:45:17;9.40;99.90
23723;DHT22;12042;52.136;5.584;2022-11-04T19:47:43;9.40;99.90
23723;DHT22;12042;52.136;5.584;2022-11-04T19:50:09;9.40;99.90
23723;DHT22;12042;52.136;5.584;2022-11-04T19:52:35;9.40;99.90
23723;DHT22;12042;52.136;5.584;2022-11-04T19:55:00;9.40;99.90
23723;DHT22;12042;52.136;5.584;2022-11-04T19:57:26;9.40;99.90
23723;DHT22;12042;52.136;5.584;2022-11-04T19:59:52;9.40;99.90
23723;DHT22;12042;52.136;5.584;2022-11-04T20:02:17;9.30;99.90
23723;DHT22;12042;52.136;5.584;2022-11-04T20:04:43;9.40;99.90
23723;DHT22;12042;52.136;5.584;2022-11-04T20:07:11;9.30;99.90
23723;DHT22;12042;52.136;5.584;2022-11-04T20:09:36;9.30;99.90
23723;DHT22;12042;52.136;5.584;2022-11-04T20:12:02;9.30;99.90
23723;DHT22;12042;52.136;5.584;2022-11-04T20:14:46;9.20;99.90
23723;DHT22;12042;52.136;5.584;2022-11-04T20:17:11;9.20;99.90
23723;DHT22;12042;52.136;5.584;2022-11-04T20:19:37;9.00;99.90
23723;DHT22;12042;52.136;5.584;2022-11-04T20:22:02;8.90;99.90
23723;DHT22;12042;52.136;5.584;2022-11-04T20:24:28;9.00;99.90
23723;DHT22;12042;52.136;5.584;2022-11-04T20:26:54;9.00;99.90
23723;DHT22;12042;52.136;5.584;2022-11-04T20:29:19;9.00;99.90
23723;DHT22;12042;52.136;5.584;2022-11-04T20:31:45;8.90;99.90
23723;DHT22;12042;52.136;5.584;2022-11-04T20:34:12;8.90;99.90
23723;DHT22;12042;52.136;5.584;2022-11-04T20:36:39;8.80;99.90
23723;DHT22;12042;52.136;5.584;2022-11-04T20:39:13;8.90;99.90
23723;DHT22;12042;52.136;5.584;2022-11-04T20:41:39;8.90;99.90
23723;DHT22;12042;52.136;5.584;2022-11-04T20:44:05;8.90;99.90
23723;DHT22;12042;52.136;5.584;2022-11-04T20:46:32;8.80;99.90
23723;DHT22;12042;52.136;5.584;2022-11-04T20:48:59;8.80;99.90
23723;DHT22;12042;52.136;5.584;2022-11-04T20:51:27;8.80;99.90
23723;DHT22;12042;52.136;5.584;2022-11-04T20:53:55;8.70;99.90
23723;DHT22;12042;52.136;5.584;2022-11-04T20:56:23;8.70;99.90
23723;DHT22;12042;52.136;5.584;2022-11-04T20:58:49;8.70;99.90
23723;DHT22;12042;52.136;5.584;2022-11-04T21:01:18;8.70;99.90
